Terminal Aerodrome Forecast
Issued by NWS Charleston, WV

Current Version | Previous Version | Text Only | Print | Product List | Glossary Off
Versions: 1 2 3 4 5 6 7 8 9 10 11 12 13 14 15 16 17 18 19 20 21 22

000
FTUS41 KRLX 240900 AAA
TAFBKW
TAF AMD
KBKW 240911Z 2409/2506 VRB03KT 1SM -SN BR OVC003
      TEMPO 2409/2412 1/2SM -SN FG OVC003
     FM241200 32008KT 2SM -SN BR OVC004
     FM241400 31006KT 5SM -SN BR OVC009
     FM241500 31008KT P6SM OVC015
     FM241900 28011G19KT P6SM BKN020=

USA.gov is the U.S. government's official web portal to all federal, state and local government web resources and services.